createdAt,value
2023-05-10T00:02:49.191Z,4.40
2023-05-10T00:05:51.627Z,5.23
2023-05-10T00:08:53.958Z,4.97
2023-05-10T00:11:56.305Z,4.80
2023-05-10T00:14:58.624Z,4.90
2023-05-10T00:18:00.981Z,5.20
2023-05-10T00:21:03.409Z,5.23
2023-05-10T00:24:05.907Z,4.70
2023-05-10T00:27:08.212Z,4.53
2023-05-10T00:30:10.763Z,5.28
2023-05-10T00:33:13.505Z,5.37
2023-05-10T00:36:15.940Z,4.90
2023-05-10T00:39:18.281Z,4.97
2023-05-10T00:42:20.577Z,5.30
2023-05-10T00:45:23.162Z,5.35
2023-05-10T00:48:26.637Z,5.45
2023-05-10T00:51:28.983Z,5.37
2023-05-10T00:54:31.341Z,5.63
2023-05-10T00:57:33.639Z,5.90
2023-05-10T01:00:35.955Z,5.95
2023-05-10T01:03:38.390Z,5.50
2023-05-10T01:06:41.416Z,5.40
2023-05-10T01:09:43.712Z,6.00
2023-05-10T01:12:48.187Z,6.13
2023-05-10T01:15:51.036Z,5.70
2023-05-10T01:18:53.379Z,6.10
2023-05-10T01:22:04.280Z,6.80
2023-05-10T01:25:09.631Z,6.60
2023-05-10T01:28:36.549Z,6.38
2023-05-10T01:32:03.261Z,6.75
2023-05-10T01:35:16.748Z,6.60
2023-05-10T01:38:27.037Z,6.90
2023-05-10T01:41:42.105Z,6.78
2023-05-10T01:44:50.772Z,6.82
2023-05-10T01:47:59.548Z,7.07
2023-05-10T01:51:02.230Z,6.80
2023-05-10T01:54:04.608Z,7.60
2023-05-10T01:57:08.483Z,7.53
2023-05-10T02:00:11.740Z,7.13
2023-05-10T02:03:17.070Z,7.25
2023-05-10T02:06:19.988Z,7.43
2023-05-10T02:09:22.323Z,7.70
2023-05-10T02:12:26.575Z,7.05
2023-05-10T02:15:28.905Z,7.55
2023-05-10T02:18:31.472Z,7.57
2023-05-10T02:21:33.902Z,7.67
2023-05-10T02:24:36.376Z,8.07
2023-05-10T02:27:38.789Z,7.43
2023-05-10T02:30:41.185Z,8.20
2023-05-10T02:33:43.501Z,8.20
2023-05-10T02:36:45.912Z,8.17
2023-05-10T02:39:49.042Z,8.60
2023-05-10T02:42:52.701Z,8.55
2023-05-10T02:45:55.101Z,8.48
2023-05-10T02:48:57.436Z,8.70
2023-05-10T02:52:02.186Z,8.57
2023-05-10T02:55:05.113Z,8.50
2023-05-10T02:58:07.834Z,8.45
2023-05-10T03:01:10.735Z,8.70
2023-05-10T03:04:13.146Z,8.30
2023-05-10T03:07:15.567Z,9.85
2023-05-10T03:10:18.428Z,9.43
2023-05-10T03:13:42.144Z,9.77
2023-05-10T03:16:48.284Z,9.25
2023-05-10T03:19:54.824Z,8.98
2023-05-10T03:23:22.113Z,9.83
2023-05-10T03:26:28.280Z,9.70
2023-05-10T03:29:39.425Z,9.73
2023-05-10T03:32:41.820Z,10.23
2023-05-10T03:35:46.771Z,10.20
2023-05-10T03:38:50.471Z,9.98
2023-05-10T03:41:53.364Z,9.43
2023-05-10T03:44:55.805Z,10.18
2023-05-10T03:47:58.949Z,9.90
2023-05-10T03:51:01.795Z,10.85
2023-05-10T03:54:04.286Z,10.60
2023-05-10T03:57:06.844Z,11.27
2023-05-10T04:00:09.968Z,11.25
2023-05-10T04:03:18.801Z,10.65
2023-05-10T04:06:21.388Z,11.18
2023-05-10T04:09:23.820Z,8.35
2023-05-10T04:12:26.225Z,6.27
2023-05-10T04:15:28.541Z,7.50
2023-05-10T04:18:31.328Z,6.03
2023-05-10T04:21:33.640Z,5.97
2023-05-10T04:24:35.971Z,7.30
2023-05-10T04:27:38.317Z,8.40
2023-05-10T04:30:41.582Z,8.80
2023-05-10T04:33:43.943Z,8.05
2023-05-10T04:36:46.277Z,9.00
2023-05-10T04:39:48.669Z,8.63
2023-05-10T04:42:50.991Z,8.20
2023-05-10T04:45:53.395Z,8.25
2023-05-10T04:48:55.768Z,7.65
2023-05-10T04:51:58.055Z,7.88
2023-05-10T04:55:00.386Z,8.40
2023-05-10T04:58:03.890Z,8.13
2023-05-10T05:01:10.486Z,7.75
2023-05-10T05:04:12.864Z,7.75
2023-05-10T05:07:15.242Z,7.95
2023-05-10T05:10:17.741Z,8.30
2023-05-10T05:13:20.437Z,8.30
2023-05-10T05:16:22.896Z,8.00
2023-05-10T05:19:25.415Z,7.78
2023-05-10T05:22:30.255Z,7.70
2023-05-10T05:25:32.656Z,7.75
2023-05-10T05:28:38.145Z,8.10
2023-05-10T05:31:40.617Z,7.57
2023-05-10T05:34:43.004Z,7.53
2023-05-10T05:37:45.379Z,8.35
2023-05-10T05:40:47.734Z,7.45
2023-05-10T05:43:50.069Z,6.90
2023-05-10T05:46:52.432Z,7.38
2023-05-10T05:49:54.778Z,7.15
2023-05-10T05:52:58.283Z,6.28
2023-05-10T05:56:00.655Z,6.93
2023-05-10T05:59:03.042Z,8.00
2023-05-10T06:02:05.420Z,8.20
2023-05-10T06:05:08.798Z,7.28
2023-05-10T06:08:11.278Z,6.55
2023-05-10T06:11:13.596Z,6.93
2023-05-10T06:14:15.888Z,6.07
2023-05-10T06:17:18.158Z,6.47
2023-05-10T06:20:20.498Z,7.82
2023-05-10T06:23:23.622Z,6.90
2023-05-10T06:26:25.934Z,6.72
2023-05-10T06:29:28.275Z,6.53
2023-05-10T06:32:30.732Z,7.15
2023-05-10T06:35:34.569Z,6.70
2023-05-10T06:38:37.104Z,6.68
2023-05-10T06:41:39.473Z,6.50
2023-05-10T06:44:41.807Z,7.10
2023-05-10T06:47:44.237Z,6.85
2023-05-10T06:50:46.566Z,6.95
2023-05-10T06:53:48.865Z,7.70
2023-05-10T06:56:51.230Z,6.75
2023-05-10T06:59:53.565Z,7.30
2023-05-10T07:02:56.153Z,8.02
2023-05-10T07:06:04.931Z,7.80
2023-05-10T07:09:08.703Z,7.85
2023-05-10T07:12:13.451Z,7.85
2023-05-10T07:15:17.846Z,9.10
2023-05-10T07:18:20.476Z,8.23
2023-05-10T07:21:25.094Z,8.68
2023-05-10T07:24:27.528Z,8.35
2023-05-10T07:27:29.843Z,8.20
2023-05-10T07:30:32.257Z,7.70
2023-05-10T07:33:34.599Z,7.40
2023-05-10T07:36:36.919Z,7.05
2023-05-10T07:39:39.236Z,7.70
2023-05-10T07:42:41.520Z,8.32
2023-05-10T07:45:44.316Z,7.83
2023-05-10T07:48:46.885Z,8.05
2023-05-10T07:51:49.519Z,7.85
2023-05-10T07:54:51.941Z,8.55
2023-05-10T07:57:54.282Z,8.45
2023-05-10T08:00:57.495Z,9.47
2023-05-10T08:03:59.835Z,8.20
2023-05-10T08:07:02.320Z,8.20
2023-05-10T08:10:04.976Z,8.07
2023-05-10T08:13:07.258Z,7.28
2023-05-10T08:16:09.648Z,6.43
2023-05-10T08:19:12.102Z,7.82
2023-05-10T08:22:14.477Z,7.85
2023-05-10T08:25:17.271Z,6.45
2023-05-10T08:28:19.714Z,7.47
2023-05-10T08:31:22.217Z,7.33
2023-05-10T08:34:25.022Z,6.70
2023-05-10T08:37:27.560Z,6.45
2023-05-10T08:40:29.960Z,6.30
2023-05-10T08:43:32.524Z,6.78
2023-05-10T08:46:36.535Z,7.27
2023-05-10T08:49:38.910Z,6.53
2023-05-10T08:52:41.331Z,6.55
2023-05-10T08:55:43.887Z,6.70
2023-05-10T08:58:46.221Z,6.55
2023-05-10T09:01:50.402Z,6.70
2023-05-10T09:04:52.951Z,6.35
2023-05-10T09:07:55.310Z,6.28
2023-05-10T09:10:57.670Z,6.32
2023-05-10T09:14:00.018Z,5.97
2023-05-10T09:17:02.445Z,6.43
2023-05-10T09:20:05.381Z,5.70
2023-05-10T09:23:07.993Z,5.10
2023-05-10T09:26:10.275Z,5.72
2023-05-10T09:29:13.418Z,5.05
2023-05-10T09:32:17.032Z,6.67
2023-05-10T09:35:25.036Z,5.55
2023-05-10T09:38:28.269Z,4.47
2023-05-10T09:41:30.672Z,5.15
2023-05-10T09:44:34.003Z,4.68
2023-05-10T09:47:37.038Z,5.13
2023-05-10T09:50:39.888Z,4.70
2023-05-10T09:53:42.220Z,4.45
2023-05-10T09:56:44.560Z,4.45
2023-05-10T09:59:46.889Z,4.53
2023-05-10T10:02:59.441Z,4.50
2023-05-10T10:06:01.991Z,4.90
2023-05-10T10:09:04.647Z,3.92
2023-05-10T10:12:07.186Z,4.68
2023-05-10T10:15:10.277Z,4.38
2023-05-10T10:18:18.329Z,4.70
2023-05-10T10:21:21.400Z,4.80
2023-05-10T10:24:24.920Z,4.93
2023-05-10T10:27:38.164Z,4.80
2023-05-10T10:30:44.971Z,4.78
2023-05-10T10:34:17.305Z,4.87
2023-05-10T10:37:19.613Z,4.60
2023-05-10T10:40:30.877Z,4.57
2023-05-10T10:43:35.039Z,4.20
2023-05-10T10:46:37.687Z,4.32
2023-05-10T10:49:43.654Z,4.57
2023-05-10T10:52:46.540Z,4.72
2023-05-10T10:55:49.298Z,4.35
2023-05-10T10:58:54.713Z,3.97
2023-05-10T11:01:57.165Z,3.70
2023-05-10T11:04:59.559Z,4.00
2023-05-10T11:08:07.480Z,3.85
2023-05-10T11:11:10.150Z,4.07
2023-05-10T11:14:12.469Z,4.38
2023-05-10T11:17:28.094Z,4.18
2023-05-10T11:20:34.498Z,3.53
2023-05-10T11:23:49.695Z,3.50
2023-05-10T11:26:55.179Z,3.72
2023-05-10T11:29:57.490Z,3.45
2023-05-10T11:32:59.877Z,4.45
2023-05-10T11:36:02.275Z,3.57
2023-05-10T11:39:05.074Z,3.40
2023-05-10T11:42:10.215Z,3.60
2023-05-10T11:45:12.552Z,4.32
2023-05-10T11:48:14.918Z,4.07
2023-05-10T11:51:23.693Z,3.40
2023-05-10T11:54:26.116Z,3.45
2023-05-10T11:57:29.593Z,3.85
2023-05-10T12:00:32.152Z,3.63
2023-05-10T12:03:35.039Z,3.58
2023-05-10T12:06:39.775Z,3.97
2023-05-10T12:09:46.066Z,3.55
2023-05-10T12:12:51.217Z,3.50
2023-05-10T12:15:53.556Z,2.83
2023-05-10T12:18:58.316Z,3.28
2023-05-10T12:22:01.133Z,3.37
2023-05-10T12:25:03.802Z,3.47
2023-05-10T12:28:08.207Z,3.55
2023-05-10T12:31:10.585Z,3.45
2023-05-10T12:34:12.911Z,3.28
2023-05-10T12:37:15.250Z,3.30
2023-05-10T12:40:18.041Z,2.85
2023-05-10T12:43:20.550Z,2.97
2023-05-10T12:46:26.345Z,3.80
2023-05-10T12:49:28.825Z,2.85
2023-05-10T12:52:32.649Z,2.43
2023-05-10T12:55:34.960Z,2.67
2023-05-10T12:58:37.290Z,3.20
2023-05-10T13:01:39.753Z,3.15
2023-05-10T13:04:43.014Z,3.10
2023-05-10T13:07:45.522Z,3.30
2023-05-10T13:10:47.854Z,2.65
2023-05-10T13:13:50.229Z,2.40
2023-05-10T13:16:52.536Z,2.88
2023-05-10T13:19:54.837Z,2.83
2023-05-10T13:22:57.197Z,3.00
2023-05-10T13:25:59.571Z,2.53
2023-05-10T13:29:01.913Z,2.65
2023-05-10T13:32:04.355Z,3.30
2023-05-10T13:35:07.715Z,2.60
2023-05-10T13:38:10.423Z,2.80
2023-05-10T13:41:12.721Z,3.00
2023-05-10T13:44:17.778Z,2.70
2023-05-10T13:47:20.124Z,3.00
2023-05-10T13:50:22.401Z,2.70
2023-05-10T13:53:24.762Z,2.93
2023-05-10T13:56:27.155Z,2.70
2023-05-10T13:59:29.815Z,2.10
2023-05-10T14:02:32.466Z,2.88
2023-05-10T14:05:34.870Z,2.85
2023-05-10T14:08:37.577Z,2.73
2023-05-10T14:11:44.062Z,3.00
2023-05-10T14:14:46.587Z,2.50
2023-05-10T14:17:49.197Z,2.53
2023-05-10T14:20:51.550Z,2.60
2023-05-10T14:23:53.852Z,2.23
2023-05-10T14:26:56.173Z,2.38
2023-05-10T14:29:58.472Z,2.60
2023-05-10T14:33:03.349Z,2.17
2023-05-10T14:36:06.084Z,2.63
2023-05-10T14:39:09.051Z,2.27
2023-05-10T14:42:11.643Z,2.40
2023-05-10T14:45:14.065Z,2.63
2023-05-10T14:48:18.523Z,2.08
2023-05-10T14:51:22.822Z,2.17
2023-05-10T14:54:25.182Z,2.20
2023-05-10T14:57:30.563Z,2.33
2023-05-10T15:00:32.969Z,2.40
2023-05-10T15:03:36.053Z,2.42
2023-05-10T15:06:39.253Z,2.20
2023-05-10T15:09:41.556Z,2.27
2023-05-10T15:12:43.889Z,2.10
2023-05-10T15:15:46.212Z,2.15
2023-05-10T15:18:49.421Z,2.00
2023-05-10T15:21:51.804Z,2.05
2023-05-10T15:24:54.123Z,2.60
2023-05-10T15:27:56.560Z,1.80
2023-05-10T15:31:01.358Z,1.90
2023-05-10T15:34:04.490Z,2.70
2023-05-10T15:37:07.248Z,2.10
2023-05-10T15:40:09.967Z,2.57
2023-05-10T15:43:12.503Z,2.63
2023-05-10T15:46:15.046Z,2.30
2023-05-10T15:49:18.826Z,2.15
2023-05-10T15:52:21.685Z,2.15
2023-05-10T15:55:24.036Z,2.03
2023-05-10T15:58:26.336Z,2.42
2023-05-10T16:01:28.751Z,1.80
2023-05-10T16:04:31.083Z,2.38
2023-05-10T16:07:33.988Z,2.10
2023-05-10T16:10:36.905Z,2.30
2023-05-10T16:13:39.249Z,2.35
2023-05-10T16:16:41.918Z,2.55
2023-05-10T16:19:44.333Z,3.75
2023-05-10T16:22:46.642Z,3.05
2023-05-10T16:25:48.968Z,2.40
2023-05-10T16:28:51.330Z,2.70
2023-05-10T16:31:54.049Z,2.33
2023-05-10T16:34:56.413Z,2.60
2023-05-10T16:37:58.749Z,3.13
2023-05-10T16:41:03.983Z,2.70
2023-05-10T16:44:06.348Z,2.20
2023-05-10T16:47:08.673Z,2.35
2023-05-10T16:50:11.567Z,2.13
2023-05-10T16:53:14.155Z,1.92
2023-05-10T16:56:18.387Z,2.67
2023-05-10T16:59:20.897Z,2.40
2023-05-10T17:02:23.593Z,2.30
2023-05-10T17:05:26.271Z,2.40
2023-05-10T17:08:28.624Z,1.98
2023-05-10T17:11:31.299Z,2.00
2023-05-10T17:14:33.587Z,2.90
2023-05-10T17:17:36.164Z,2.92
2023-05-10T17:20:38.472Z,2.33
2023-05-10T17:23:40.884Z,2.22
2023-05-10T17:26:43.311Z,4.17
2023-05-10T17:29:45.773Z,3.60
2023-05-10T17:32:48.124Z,2.55
2023-05-10T17:35:50.612Z,3.10
2023-05-10T17:38:53.000Z,2.58
2023-05-10T17:41:55.353Z,2.60
2023-05-10T17:44:57.751Z,2.30
2023-05-10T17:48:00.016Z,2.20
2023-05-10T17:51:02.721Z,2.58
2023-05-10T17:54:05.112Z,1.95
2023-05-10T17:57:07.634Z,2.47
2023-05-10T18:00:10.508Z,2.20
2023-05-10T18:03:12.770Z,1.90
2023-05-10T18:06:15.094Z,2.05
2023-05-10T18:09:18.189Z,1.98
2023-05-10T18:12:20.505Z,2.43
2023-05-10T18:15:23.111Z,2.00
2023-05-10T18:18:25.584Z,1.92
2023-05-10T18:21:27.976Z,1.80
2023-05-10T18:24:39.425Z,2.20
2023-05-10T18:27:42.469Z,2.00
2023-05-10T18:30:45.053Z,2.28
2023-05-10T18:33:47.363Z,2.30
2023-05-10T18:36:49.703Z,2.33
2023-05-10T18:39:52.052Z,2.17
2023-05-10T18:42:54.408Z,2.20
2023-05-10T18:45:57.358Z,1.92
2023-05-10T18:48:59.709Z,2.03
2023-05-10T18:52:02.095Z,2.10
2023-05-10T18:55:04.799Z,2.38
2023-05-10T18:58:07.116Z,3.37
2023-05-10T19:01:09.487Z,3.00
2023-05-10T19:04:11.824Z,3.38
2023-05-10T19:07:14.205Z,3.13
2023-05-10T19:10:16.574Z,2.50
2023-05-10T19:13:19.039Z,2.80
2023-05-10T19:16:24.089Z,2.58
2023-05-10T19:19:27.527Z,2.20
2023-05-10T19:25:35.440Z,2.17
2023-05-10T19:28:37.952Z,2.10
2023-05-10T19:31:40.466Z,2.20
2023-05-10T19:34:43.065Z,2.30
2023-05-10T19:37:47.262Z,2.35
2023-05-10T19:40:59.411Z,2.00
2023-05-10T19:44:01.970Z,2.57
2023-05-10T19:47:05.365Z,2.30
2023-05-10T19:50:08.233Z,2.50
2023-05-10T19:53:10.850Z,2.50
2023-05-10T19:56:13.326Z,2.50
2023-05-10T19:59:15.648Z,2.33
2023-05-10T20:02:18.297Z,1.90
2023-05-10T20:05:21.235Z,2.45
2023-05-10T20:08:23.551Z,2.08
2023-05-10T20:11:25.889Z,2.22
2023-05-10T20:14:28.196Z,2.20
2023-05-10T20:17:30.551Z,2.22
2023-05-10T20:20:32.967Z,2.60
2023-05-10T20:23:35.347Z,2.13
2023-05-10T20:26:39.818Z,2.30
2023-05-10T20:29:42.188Z,2.30
2023-05-10T20:32:44.616Z,2.47
2023-05-10T20:35:47.000Z,2.70
2023-05-10T20:38:49.299Z,2.53
2023-05-10T20:41:52.489Z,2.38
2023-05-10T20:44:54.842Z,3.00
2023-05-10T20:47:57.741Z,2.63
2023-05-10T20:51:03.207Z,2.05
2023-05-10T20:54:05.754Z,2.47
2023-05-10T20:57:08.170Z,2.60
2023-05-10T21:00:10.964Z,2.10
2023-05-10T21:03:14.348Z,2.47
2023-05-10T21:06:16.672Z,2.20
2023-05-10T21:09:18.996Z,2.47
2023-05-10T21:12:21.307Z,2.10
2023-05-10T21:15:24.516Z,2.57
2023-05-10T21:18:26.878Z,2.38
2023-05-10T21:21:29.433Z,3.47
2023-05-10T21:24:31.814Z,2.40
2023-05-10T21:27:34.932Z,2.47
2023-05-10T21:30:37.272Z,2.40
2023-05-10T21:33:39.672Z,2.72
2023-05-10T21:36:42.014Z,2.58
2023-05-10T21:39:44.536Z,2.35
2023-05-10T21:42:49.708Z,2.72
2023-05-10T21:45:52.056Z,2.40
2023-05-10T21:48:54.413Z,3.28
2023-05-10T21:51:56.839Z,2.83
2023-05-10T21:54:59.162Z,2.47
2023-05-10T21:58:01.486Z,3.08
2023-05-10T22:01:03.903Z,3.10
2023-05-10T22:04:06.356Z,2.97
2023-05-10T22:07:08.724Z,2.67
2023-05-10T22:10:11.290Z,2.80
2023-05-10T22:13:13.625Z,2.92
2023-05-10T22:16:16.478Z,2.70
2023-05-10T22:19:19.007Z,3.17
2023-05-10T22:22:22.491Z,3.95
2023-05-10T22:25:24.816Z,3.40
2023-05-10T22:28:27.143Z,3.45
2023-05-10T22:31:29.617Z,3.10
2023-05-10T22:34:35.802Z,3.22
2023-05-10T22:37:38.116Z,3.03
2023-05-10T22:40:41.279Z,3.38
2023-05-10T22:43:44.925Z,3.28
2023-05-10T22:46:47.331Z,2.90
2023-05-10T22:49:49.699Z,3.33
2023-05-10T22:52:52.131Z,2.80
2023-05-10T22:55:54.517Z,3.28
2023-05-10T22:58:56.916Z,3.22
2023-05-10T23:01:59.264Z,2.80
2023-05-10T23:05:01.632Z,3.20
2023-05-10T23:08:04.039Z,3.15
2023-05-10T23:11:06.357Z,3.17
2023-05-10T23:14:08.652Z,3.30
2023-05-10T23:17:11.008Z,3.97
2023-05-10T23:20:13.435Z,3.40
2023-05-10T23:23:15.874Z,2.90
2023-05-10T23:26:18.206Z,3.10
2023-05-10T23:29:20.542Z,2.63
2023-05-10T23:32:23.189Z,3.63
2023-05-10T23:35:25.590Z,3.03
2023-05-10T23:38:27.925Z,3.28
2023-05-10T23:41:30.228Z,2.88
2023-05-10T23:44:32.525Z,3.22
2023-05-10T23:47:34.879Z,2.90
2023-05-10T23:50:37.238Z,3.40
2023-05-10T23:53:39.557Z,3.03
2023-05-10T23:56:42.028Z,3.00
2023-05-10T23:59:44.487Z,2.70
